createdAt,value
2022-11-28T05:58:37.668Z,22.60
2022-11-28T06:01:16.359Z,26.50
2022-11-28T06:03:47.369Z,24.10
2022-11-28T06:06:19.939Z,26.70
2022-11-28T06:08:52.380Z,24.20
2022-11-28T06:11:23.874Z,19.80
2022-11-28T06:13:54.547Z,25.50
2022-11-28T06:16:26.576Z,17.60
2022-11-28T06:18:58.185Z,18.60
2022-11-28T06:21:29.709Z,20.70
2022-11-28T06:24:00.803Z,23.40
2022-11-28T06:26:31.691Z,21.70
2022-11-28T06:29:02.091Z,19.10
2022-11-28T06:31:32.573Z,17.80
2022-11-28T06:34:03.161Z,20.90
2022-11-28T06:36:34.049Z,17.80
2022-11-28T06:39:04.560Z,23.30
2022-11-28T06:41:34.989Z,20.70
2022-11-28T06:44:05.637Z,19.60
2022-11-28T06:46:36.035Z,25.50
2022-11-28T06:49:06.593Z,19.60
2022-11-28T06:51:37.226Z,18.10
2022-11-28T06:54:08.135Z,21.70
2022-11-28T06:56:38.531Z,21.10
2022-11-28T06:59:08.943Z,20.80
2022-11-28T07:01:39.431Z,24.00
2022-11-28T07:04:10.098Z,23.50
2022-11-28T07:06:40.822Z,20.40
2022-11-28T07:09:11.527Z,20.80
2022-11-28T07:11:43.781Z,21.20
2022-11-28T07:14:14.094Z,19.40
2022-11-28T07:16:44.545Z,19.30
2022-11-28T07:19:15.018Z,22.50
2022-11-28T07:21:45.404Z,19.90
2022-11-28T07:24:15.877Z,24.90
2022-11-28T07:26:47.383Z,21.20
2022-11-28T07:29:18.911Z,19.20
2022-11-28T07:31:49.448Z,18.60
2022-11-28T07:34:19.804Z,20.60
2022-11-28T07:36:50.242Z,16.70
2022-11-28T07:39:21.138Z,18.20
2022-11-28T07:41:51.565Z,20.90
2022-11-28T07:44:22.257Z,19.60
2022-11-28T07:46:52.840Z,22.10
2022-11-28T07:49:23.312Z,18.50
2022-11-28T07:51:53.684Z,19.30
2022-11-28T07:54:24.426Z,19.90
2022-11-28T07:57:11.783Z,18.10
2022-11-28T07:59:43.792Z,18.30
2022-11-28T08:02:14.703Z,23.00
2022-11-28T08:04:49.589Z,22.80
2022-11-28T08:07:23.349Z,22.70
2022-11-28T08:09:53.838Z,19.40
2022-11-28T08:12:24.266Z,18.10
2022-11-28T08:14:54.651Z,20.20
2022-11-28T08:17:25.024Z,19.20
2022-11-28T08:19:55.414Z,19.40
2022-11-28T08:22:25.896Z,19.30
2022-11-28T08:24:59.368Z,21.40
2022-11-28T08:27:29.808Z,20.10
2022-11-28T08:30:01.309Z,23.10
2022-11-28T08:32:32.664Z,20.70
2022-11-28T08:35:03.083Z,21.70
2022-11-28T08:37:33.531Z,27.20
2022-11-28T08:40:04.138Z,21.10
2022-11-28T08:42:34.896Z,22.10
2022-11-28T08:45:20.909Z,22.00
2022-11-28T08:47:51.621Z,19.00
2022-11-28T08:50:22.131Z,21.00
2022-11-28T08:52:52.782Z,15.50
2022-11-28T08:55:31.680Z,18.80
2022-11-28T08:58:02.826Z,19.80
2022-11-28T09:00:33.649Z,28.60
2022-11-28T09:03:04.381Z,29.10
2022-11-28T09:05:35.192Z,19.20
2022-11-28T09:08:10.118Z,17.30
2022-11-28T09:10:43.773Z,19.50
2022-11-28T09:13:15.038Z,17.20
2022-11-28T09:15:51.146Z,19.40
2022-11-28T09:18:23.034Z,17.90
2022-11-28T09:20:59.818Z,17.10
2022-11-28T09:23:30.549Z,17.20
2022-11-28T09:26:01.195Z,18.40
2022-11-28T09:28:31.684Z,18.60
2022-11-28T09:31:05.758Z,22.20
2022-11-28T09:33:36.821Z,14.70
2022-11-28T09:36:12.427Z,16.20
2022-11-28T09:38:43.235Z,15.60
2022-11-28T09:41:34.163Z,18.20
2022-11-28T09:44:08.282Z,19.10
2022-11-28T09:46:39.730Z,19.20
2022-11-28T09:49:20.580Z,20.10
2022-11-28T09:51:56.092Z,19.60
2022-11-28T09:54:34.102Z,22.30
2022-11-28T09:57:08.397Z,19.10
2022-11-28T09:59:38.931Z,19.20
2022-11-28T10:02:21.897Z,19.60
2022-11-28T10:05:02.091Z,16.60
2022-11-28T10:07:38.845Z,17.50
2022-11-28T10:10:18.680Z,16.70
2022-11-28T10:12:53.967Z,17.50
2022-11-28T10:15:39.145Z,15.70
2022-11-28T10:18:19.049Z,13.60
2022-11-28T10:20:54.728Z,17.80
2022-11-28T10:23:28.065Z,18.70
2022-11-28T10:26:01.137Z,14.70
2022-11-28T10:28:35.879Z,17.70
2022-11-28T10:31:10.662Z,20.10
2022-11-28T10:33:45.037Z,17.90
2022-11-28T10:36:21.709Z,16.90
2022-11-28T10:38:52.229Z,19.80
2022-11-28T10:41:29.080Z,21.40
2022-11-28T10:44:04.143Z,13.00
2022-11-28T10:46:51.798Z,17.00
2022-11-28T10:49:33.237Z,17.40
2022-11-28T10:52:13.170Z,15.30
2022-11-28T10:55:06.805Z,16.60
2022-11-28T10:57:42.975Z,16.10
2022-11-28T11:00:18.145Z,16.30
2022-11-28T11:02:50.772Z,16.40
2022-11-28T11:05:22.768Z,17.50
2022-11-28T11:07:55.529Z,18.10
2022-11-28T11:10:30.453Z,17.20
2022-11-28T11:13:01.152Z,17.40
2022-11-28T11:15:36.073Z,17.90
2022-11-28T11:18:21.451Z,18.60
2022-11-28T11:20:52.017Z,18.80
2022-11-28T11:23:23.451Z,18.10
2022-11-28T11:25:58.213Z,20.20
2022-11-28T11:28:43.828Z,18.10
2022-11-28T11:31:26.787Z,19.00
2022-11-28T11:34:04.776Z,18.30
2022-11-28T11:36:36.653Z,18.80
2022-11-28T11:39:20.240Z,18.20
2022-11-28T11:41:51.883Z,20.00
2022-11-28T11:44:35.275Z,19.10
2022-11-28T11:47:09.565Z,14.90
2022-11-28T11:49:41.956Z,18.70
2022-11-28T11:52:22.560Z,20.70
2022-11-28T11:55:07.518Z,23.50
2022-11-28T11:57:40.676Z,19.60
2022-11-28T12:00:17.586Z,22.60
2022-11-28T12:02:50.945Z,18.90
2022-11-28T12:05:22.829Z,19.70
2022-11-28T12:07:57.718Z,21.50
2022-11-28T12:10:29.752Z,19.80
2022-11-28T12:13:00.440Z,20.10
2022-11-28T12:15:41.037Z,19.20
2022-11-28T12:18:24.021Z,21.80
2022-11-28T12:21:02.606Z,23.30
2022-11-28T12:23:41.747Z,17.80
2022-11-28T12:26:18.688Z,19.90
2022-11-28T12:29:01.330Z,19.00
2022-11-28T12:31:38.480Z,21.30
2022-11-28T12:34:16.180Z,22.70
2022-11-28T12:36:51.512Z,23.30
2022-11-28T12:39:30.322Z,20.30
2022-11-28T12:42:15.331Z,20.40
2022-11-28T12:44:58.946Z,21.10
2022-11-28T12:47:37.996Z,20.40
2022-11-28T12:50:18.322Z,24.60
2022-11-28T12:52:55.844Z,24.00
2022-11-28T12:55:33.290Z,18.20
2022-11-28T12:58:09.004Z,18.00
2022-11-28T13:00:49.641Z,21.80
2022-11-28T13:03:29.815Z,22.90
2022-11-28T13:06:08.693Z,22.10
2022-11-28T13:08:57.458Z,24.00
2022-11-28T13:11:43.067Z,21.90
2022-11-28T13:14:19.216Z,22.30
2022-11-28T13:16:51.736Z,20.80
2022-11-28T13:19:31.380Z,19.90
2022-11-28T13:22:09.102Z,21.50
2022-11-28T13:24:42.926Z,20.60
2022-11-28T13:27:21.799Z,21.80
2022-11-28T13:29:57.865Z,20.30
2022-11-28T13:32:35.243Z,20.10
2022-11-28T13:35:06.295Z,22.30
2022-11-28T13:40:36.931Z,22.10
2022-11-28T13:43:12.081Z,20.90
2022-11-28T13:45:44.487Z,22.70
2022-11-28T13:51:39.997Z,24.10
2022-11-28T13:54:48.585Z,23.00
2022-11-28T13:57:30.954Z,27.80
2022-11-28T14:00:05.798Z,26.40
2022-11-28T14:02:47.541Z,28.10
2022-11-28T14:05:31.709Z,28.80
2022-11-28T14:08:02.724Z,26.50
2022-11-28T14:10:51.056Z,25.60
2022-11-28T14:13:40.337Z,27.20
2022-11-28T14:16:21.329Z,25.80
2022-11-28T14:19:04.925Z,26.30
2022-11-28T14:21:49.848Z,24.80
2022-11-28T14:24:26.270Z,27.70
2022-11-28T14:27:01.701Z,27.90
2022-11-28T14:29:37.143Z,25.80
2022-11-28T14:32:29.797Z,28.00
2022-11-28T14:34:59.157Z,28.10
2022-11-28T14:43:29.660Z,26.40
2022-11-28T14:46:33.843Z,27.60
2022-11-28T14:49:18.015Z,30.70
2022-11-28T14:52:39.591Z,27.60
2022-11-28T14:55:23.428Z,28.70
2022-11-28T14:57:59.268Z,30.60
2022-11-28T15:00:31.937Z,34.50
2022-11-28T15:03:11.659Z,30.10
2022-11-28T15:05:46.597Z,33.20
2022-11-28T15:08:35.512Z,34.70
2022-11-28T15:11:21.502Z,30.80
2022-11-28T15:14:15.129Z,30.60
2022-11-28T15:16:50.658Z,26.40
2022-11-28T15:19:26.679Z,30.20
2022-11-28T15:21:58.098Z,30.80
2022-11-28T15:24:31.461Z,31.40
2022-11-28T15:27:20.249Z,36.20
2022-11-28T15:29:58.268Z,30.20
2022-11-28T15:32:30.661Z,31.90
2022-11-28T15:35:09.188Z,35.10
2022-11-28T15:37:49.657Z,30.00
2022-11-28T15:40:22.334Z,35.10
2022-11-28T15:42:52.853Z,30.20
2022-11-28T15:45:28.158Z,27.80
2022-11-28T15:47:59.907Z,30.90
2022-11-28T15:50:31.768Z,28.80
2022-11-28T15:53:04.466Z,32.60
2022-11-28T15:55:36.107Z,30.60
2022-11-28T15:58:25.512Z,36.70
2022-11-28T16:00:59.173Z,34.70
2022-11-28T16:03:33.394Z,34.80
2022-11-28T16:06:06.134Z,34.20
2022-11-28T16:08:40.038Z,36.20
2022-11-28T16:11:12.635Z,29.30
2022-11-28T16:13:43.690Z,36.30
2022-11-28T16:16:17.975Z,30.50
2022-11-28T16:18:53.239Z,32.90
2022-11-28T16:21:26.395Z,35.90
2022-11-28T16:23:57.430Z,32.30
2022-11-28T16:26:32.895Z,27.90
2022-11-28T16:29:13.289Z,29.80
2022-11-28T16:31:48.461Z,32.20
2022-11-28T16:34:19.439Z,30.30
2022-11-28T16:36:52.391Z,27.50
2022-11-28T16:41:54.929Z,29.90
2022-11-28T16:44:28.104Z,25.30
2022-11-28T16:46:59.422Z,27.30
2022-11-28T16:49:36.934Z,29.10
2022-11-28T16:52:49.032Z,26.80
2022-11-28T16:55:41.122Z,24.70
2022-11-28T16:58:20.087Z,24.00
2022-11-28T17:00:59.198Z,26.30
2022-11-28T17:03:49.470Z,27.30
2022-11-28T17:06:25.801Z,27.50
2022-11-28T17:08:56.487Z,26.90
2022-11-28T17:11:29.749Z,26.10
2022-11-28T17:14:02.547Z,22.90
2022-11-28T17:16:36.805Z,26.50
2022-11-28T17:19:07.417Z,26.40
2022-11-28T17:21:42.166Z,25.10
2022-11-28T17:24:17.843Z,27.50
2022-11-28T17:26:48.387Z,24.50
2022-11-28T17:29:19.283Z,26.80
2022-11-28T17:31:50.600Z,27.00
2022-11-28T17:34:22.514Z,26.60
2022-11-28T17:36:53.485Z,23.80
2022-11-28T17:39:28.007Z,26.20
2022-11-28T17:41:58.905Z,29.10
2022-11-28T17:44:37.698Z,27.40
2022-11-28T17:47:09.000Z,23.20
2022-11-28T17:49:45.997Z,26.30
2022-11-28T17:52:17.773Z,25.30
2022-11-28T17:55:07.048Z,27.10
2022-11-28T17:57:38.371Z,25.40
2022-11-28T18:00:12.296Z,26.70
2022-11-28T18:02:49.121Z,24.60
2022-11-28T18:05:19.891Z,22.40
2022-11-28T18:07:50.596Z,26.20
2022-11-28T18:10:21.308Z,22.20
2022-11-28T18:12:52.765Z,24.70
2022-11-28T18:15:27.069Z,23.90
2022-11-28T18:17:57.792Z,25.20
2022-11-28T18:20:28.672Z,24.90
2022-11-28T18:23:01.085Z,28.10
2022-11-28T18:25:31.600Z,22.40
2022-11-28T18:28:02.317Z,25.30
2022-11-28T18:30:33.001Z,23.90
2022-11-28T18:33:04.762Z,24.90
2022-11-28T18:35:35.890Z,23.10
2022-11-28T18:38:07.938Z,26.90
2022-11-28T18:40:39.047Z,24.90
2022-11-28T18:43:10.422Z,22.50
2022-11-28T18:45:41.298Z,22.20
2022-11-28T18:48:11.781Z,24.10
2022-11-28T18:50:42.255Z,24.60
2022-11-28T18:53:13.473Z,27.60
2022-11-28T18:55:44.883Z,21.50
2022-11-28T18:58:16.756Z,26.60
2022-11-28T19:00:47.477Z,23.80
2022-11-28T19:03:18.133Z,22.80
2022-11-28T19:05:48.876Z,22.10
2022-11-28T19:08:19.511Z,26.20
2022-11-28T19:10:50.231Z,25.80
2022-11-28T19:13:21.025Z,28.60
2022-11-28T19:15:51.433Z,28.00
2022-11-28T19:18:21.950Z,30.00
2022-11-28T19:20:52.592Z,27.00
2022-11-28T19:23:23.383Z,29.70
2022-11-28T19:25:54.228Z,25.20
2022-11-28T19:28:25.737Z,23.80
2022-11-28T19:30:57.440Z,21.30
2022-11-28T19:33:27.971Z,22.80
2022-11-28T19:36:03.559Z,23.60
2022-11-28T19:38:34.456Z,27.00
2022-11-28T19:41:09.822Z,19.20
2022-11-28T19:43:40.560Z,22.80
2022-11-28T19:46:11.957Z,24.40
2022-11-28T19:48:43.327Z,26.00
2022-11-28T19:51:15.767Z,21.10
2022-11-28T19:53:46.645Z,24.10
2022-11-28T19:56:18.508Z,22.30
2022-11-28T19:58:49.517Z,25.80
2022-11-28T20:01:23.611Z,23.40
2022-11-28T20:03:55.646Z,24.20
2022-11-28T20:06:32.423Z,23.40
2022-11-28T20:09:07.467Z,22.80
2022-11-28T20:11:40.532Z,20.70
2022-11-28T20:14:14.731Z,23.70
2022-11-28T20:16:45.721Z,21.80
2022-11-28T20:19:18.252Z,23.10
2022-11-28T20:21:48.960Z,24.70
2022-11-28T20:24:19.491Z,23.50
2022-11-28T20:26:51.044Z,21.30
2022-11-28T20:29:26.591Z,22.60
2022-11-28T20:31:58.011Z,26.30
2022-11-28T20:34:29.695Z,25.20
2022-11-28T20:37:02.299Z,18.80
2022-11-28T20:39:32.851Z,23.00
2022-11-28T20:42:03.783Z,21.40
2022-11-28T20:44:34.227Z,23.20
2022-11-28T20:47:05.329Z,25.80
2022-11-28T20:49:35.988Z,24.70
2022-11-28T20:52:06.538Z,22.60
2022-11-28T20:54:37.156Z,19.40
2022-11-28T20:57:21.286Z,23.50
2022-11-28T20:59:52.496Z,24.30
2022-11-28T21:02:23.947Z,21.50
2022-11-28T21:04:55.609Z,23.60
2022-11-28T21:07:28.425Z,20.70
2022-11-28T21:10:03.653Z,22.10
2022-11-28T21:12:35.733Z,24.90
2022-11-28T21:15:11.577Z,25.20
2022-11-28T21:17:45.031Z,24.10
2022-11-28T21:20:18.429Z,22.20
2022-11-28T21:22:49.283Z,25.50
2022-11-28T21:25:20.810Z,23.60
2022-11-28T21:27:52.879Z,25.70
2022-11-28T21:30:24.801Z,29.30
2022-11-28T21:32:56.500Z,27.80
2022-11-28T21:35:29.629Z,28.60
2022-11-28T21:38:02.760Z,23.90
2022-11-28T21:40:34.752Z,27.10
2022-11-28T21:43:08.181Z,27.90
2022-11-28T21:45:40.658Z,25.90
2022-11-28T21:48:12.530Z,29.20
2022-11-28T21:50:49.647Z,26.60
2022-11-28T21:53:22.168Z,27.30
2022-11-28T21:55:55.483Z,25.80
2022-11-28T21:58:28.669Z,28.50
2022-11-28T22:01:03.977Z,28.70
2022-11-28T22:03:37.295Z,26.30
2022-11-28T22:06:13.367Z,29.90
2022-11-28T22:08:46.299Z,27.90
2022-11-28T22:15:23.808Z,24.70
2022-11-28T22:17:55.319Z,26.70
2022-11-28T22:20:31.047Z,27.80
2022-11-28T22:25:34.089Z,23.40
2022-11-28T22:28:06.543Z,28.30
2022-11-28T22:30:40.969Z,22.70
2022-11-28T22:33:12.979Z,26.40
2022-11-28T22:35:46.013Z,27.40
2022-11-28T22:38:18.716Z,26.70
2022-11-28T22:40:51.369Z,25.10
2022-11-28T22:43:23.771Z,24.40
2022-11-28T22:46:00.199Z,27.30
2022-11-28T22:48:33.850Z,27.50
2022-11-28T22:58:23.867Z,24.30
2022-11-28T23:03:27.075Z,27.40
2022-11-28T23:11:07.978Z,23.20
2022-11-28T23:13:39.294Z,25.20
2022-11-28T23:16:15.596Z,24.00
2022-11-28T23:18:47.456Z,24.50
2022-11-28T23:21:19.406Z,25.50
2022-11-28T23:23:50.732Z,24.50
2022-11-28T23:26:23.227Z,24.30
2022-11-28T23:28:54.265Z,24.70
2022-11-28T23:31:27.719Z,29.50
2022-11-28T23:33:59.020Z,23.90
2022-11-28T23:36:35.697Z,23.70
2022-11-28T23:39:11.422Z,21.80
2022-11-28T23:41:42.125Z,24.80
2022-11-28T23:44:14.374Z,23.50
2022-11-28T23:46:45.315Z,27.40
2022-11-28T23:49:16.297Z,24.60
2022-11-28T23:51:48.958Z,24.10
2022-11-28T23:54:19.825Z,23.90
2022-11-28T23:56:50.448Z,26.50
2022-11-28T23:59:21.183Z,25.60
